Terminal Aerodrome Forecast
Issued by NWS

Home | Current Version | Previous Version | Text Only | Print | Product List | Glossary On
Versions: 1 2 3 4 5 6 7 8 9 10 11 12 13 14 15 16 17 18 19 20 21 22 23 24 25 26 27 28 29 30 31 32 33 34 35 36
000
FTUS41 KBOX 220527
TAFACK
TAF
KACK 220527Z 2206/2306 26008KT 1/4SM FG OVC002
     FM221100 27004KT 1/2SM FG OVC003
     FM221300 35004KT 1SM BR OVC003
     FM221900 06014KT 5SM BR OVC008
     FM222300 06017KT P6SM OVC008
     FM230200 06018G30KT P6SM OVC015=

USA.gov is the U.S. government's official web portal to all federal, state and local government web resources and services.